Tuxford, Canada
Current Conditions -  °F | °C
As of 6:00 PM on Wednesday 22 Oct 2014 (Local Time) from CYMJ Reporting Station
Few Clouds Few Clouds  
Wind Chill: 50°   Ceiling: Unl
Heat Index: 50°   Visibility: 15mi
Dew Point: 43°   Wind: 8mph
Humidity: 76%   Direction: 260°W
Pressure: 29.76"   Gusts: NA
Location:  50.58°N, 105.58°W
Report Text: CYMJ 230000Z 26007KT 15SM FEW110 FEW250 10/06 A2976 RMK AC1CI1 LAST OBS/NEXT 231000 UTC SLP092
Loading
Personal Weather Stations






























Interactive Weather Map
Tropical Storm Tracking
New forecast layout! Learn more

10-Day Weather Forecast

Advertisements
Track Severe Weather on mobile